首页
METAR-TAF:

METAR-TAF

机场 :

易卜拉欣·納西爾國際機場

馬累, 马尔代夫

纬度: 04-12N, 经度: 073-32E, 海拔: 2米

当前天气观测

该预报发布于38分钟前的02:00 UTC
风速32节,风向西转西北
温度 25°C
湿度 100%
气压 1010 hPa
能見度: 2000
散云层高于1600英尺
散云层高于1700英尺, 积雨云.
雷暴, 雨

METAR: VRMM 220200Z 29032KT 2000 TSRA SCT016 SCT017CB 25/25 Q1010 RETSRA CB N,NE,E,SW,W,NW,OVERHEAD TEMPO 4000 TSRA

时间: 07:38 (02:38 UTC)

预报

该预报发布于3小时和38分钟前的23:00 UTC
预报有效从22日的 00点(UTC)到 23日的 06点(UTC)
风速15节,风向西转西南
能见度10公里或以上
散云层高于1700英尺, 塔状积云.
多云层高于12000英尺
短暂存在
从 22日的 00点(UTC)到 22日的 06点(UTC)
能見度: 4000
散云层高于1700英尺, 积雨云.
雷暴, 雨,

TAF: VRMM 212300Z 2200/2306 25015KT 9999 SCT017TCU BKN120 TEMPO 2200/2206 4000 TSRA SCT017CB

超过4000个机场的气象观测和天气预报(METAR&TAF报告)。

可查询的气象台以黄色和红色小点在地图上表示。

将鼠标移到小点上方,可查看气象台名称。

然后点击查看天气观测和预报。

如需切换地图:点击带黑十字的绿色按钮放大地图;点击带横线的绿色按钮缩小地图;或者点击绿色箭头查看邻近地区的地图。


METAR-TAF: